createdAt,value
2023-03-22T05:03:19.245Z,28.20
2023-03-22T05:05:57.678Z,26.20
2023-03-22T05:08:30.953Z,29.00
2023-03-22T05:11:06.276Z,27.20
2023-03-22T05:13:35.758Z,26.80
2023-03-22T05:16:10.260Z,27.50
2023-03-22T05:18:59.349Z,26.10
2023-03-22T05:21:29.241Z,24.60
2023-03-22T05:35:27.282Z,26.00
2023-03-22T05:46:39.281Z,23.10
2023-03-22T05:49:48.559Z,27.20
2023-03-22T05:52:23.098Z,32.80
2023-03-22T05:55:12.894Z,33.30
2023-03-22T05:57:46.681Z,28.30
2023-03-22T06:00:18.356Z,27.40
2023-03-22T06:03:15.174Z,27.90
2023-03-22T06:05:46.882Z,28.10
2023-03-22T06:08:17.670Z,26.90
2023-03-22T06:10:49.606Z,26.70
2023-03-22T06:13:24.554Z,28.50
2023-03-22T06:15:54.823Z,29.50
2023-03-22T06:18:31.178Z,28.70
2023-03-22T06:21:07.491Z,26.40
2023-03-22T06:23:37.016Z,27.00
2023-03-22T06:26:11.763Z,25.60
2023-03-22T06:28:41.615Z,25.90
2023-03-22T06:31:11.200Z,28.50
2023-03-22T06:33:46.651Z,30.50
2023-03-22T06:36:23.887Z,31.80
2023-03-22T06:39:08.803Z,29.30
2023-03-22T06:41:41.006Z,29.50
2023-03-22T06:44:38.573Z,25.90
2023-03-22T06:47:16.588Z,23.40
2023-03-22T06:49:55.694Z,26.00
2023-03-22T06:52:30.417Z,25.70
2023-03-22T06:54:59.388Z,24.10
2023-03-22T06:57:33.631Z,22.70
2023-03-22T07:00:05.338Z,24.20
2023-03-22T07:02:58.647Z,25.40
2023-03-22T07:05:46.721Z,24.40
2023-03-22T07:08:16.437Z,22.20
2023-03-22T07:11:07.049Z,22.40
2023-03-22T07:13:54.573Z,25.50
2023-03-22T07:16:29.250Z,23.40
2023-03-22T07:19:23.962Z,23.70
2023-03-22T07:22:13.671Z,30.50
2023-03-22T07:25:15.156Z,36.10
2023-03-22T07:27:51.373Z,41.10
2023-03-22T07:30:38.971Z,39.30
2023-03-22T07:33:12.040Z,38.70
2023-03-22T07:35:52.597Z,36.00
2023-03-22T07:38:22.869Z,34.60
2023-03-22T07:40:56.216Z,34.00
2023-03-22T07:56:38.124Z,28.10
2023-03-22T08:00:03.242Z,26.90
2023-03-22T08:12:14.664Z,25.90
2023-03-22T08:14:51.461Z,27.00
2023-03-22T08:17:24.733Z,24.60
2023-03-22T08:19:57.005Z,27.10
2023-03-22T08:22:40.017Z,26.90
2023-03-22T08:25:21.887Z,26.50
2023-03-22T08:27:51.346Z,26.80
2023-03-22T08:30:23.756Z,26.10
2023-03-22T08:32:55.775Z,24.30
2023-03-22T08:35:24.765Z,24.90
2023-03-22T08:37:55.053Z,25.90
2023-03-22T08:40:27.460Z,25.00
2023-03-22T08:43:01.631Z,24.60
2023-03-22T08:45:31.202Z,21.70
2023-03-22T08:48:07.011Z,22.30
2023-03-22T08:50:48.038Z,19.70
2023-03-22T08:53:26.920Z,20.40
2023-03-22T08:56:05.667Z,18.10
2023-03-22T08:58:57.361Z,18.90
2023-03-22T09:01:55.568Z,19.40
2023-03-22T09:04:24.766Z,21.70
2023-03-22T09:06:53.757Z,19.10
2023-03-22T09:09:24.606Z,20.50
2023-03-22T09:11:54.176Z,15.30
2023-03-22T09:14:23.321Z,18.60
2023-03-22T09:19:26.432Z,16.60
2023-03-22T09:21:55.886Z,16.20
2023-03-22T09:24:52.198Z,15.40
2023-03-22T09:27:21.855Z,13.60
2023-03-22T09:29:52.557Z,15.50
2023-03-22T09:32:21.462Z,14.60
2023-03-22T09:34:56.591Z,14.20
2023-03-22T09:37:32.814Z,16.10
2023-03-22T09:40:02.467Z,13.00
2023-03-22T09:42:34.419Z,14.40
2023-03-22T09:45:10.704Z,15.90
2023-03-22T09:47:45.034Z,15.90
2023-03-22T09:50:25.134Z,16.00
2023-03-22T09:52:54.071Z,13.80
2023-03-22T09:55:42.063Z,16.00
2023-03-22T09:58:14.155Z,18.30
2023-03-22T10:01:24.853Z,16.60
2023-03-22T10:04:02.353Z,16.70
2023-03-22T10:06:31.274Z,15.20
2023-03-22T10:09:24.476Z,18.00
2023-03-22T10:12:13.809Z,16.00
2023-03-22T10:15:03.740Z,16.10
2023-03-22T10:17:32.822Z,15.30
2023-03-22T10:20:30.198Z,15.60
2023-03-22T10:22:59.594Z,16.10
2023-03-22T10:25:33.947Z,15.10
2023-03-22T10:28:02.840Z,15.50
2023-03-22T10:30:38.569Z,17.10
2023-03-22T10:33:27.920Z,17.10
2023-03-22T10:35:56.654Z,15.10
2023-03-22T10:38:26.838Z,15.40
2023-03-22T10:40:59.749Z,16.10
2023-03-22T10:43:39.974Z,16.80
2023-03-22T10:46:13.976Z,14.90
2023-03-22T10:48:45.872Z,14.70
2023-03-22T10:51:40.408Z,16.70
2023-03-22T10:54:13.123Z,15.10
2023-03-22T10:56:41.921Z,17.00
2023-03-22T10:59:51.924Z,16.10
2023-03-22T11:02:23.129Z,18.00
2023-03-22T11:04:53.480Z,16.40
2023-03-22T11:07:35.035Z,18.10
2023-03-22T11:10:10.840Z,18.20
2023-03-22T11:12:45.043Z,17.90
2023-03-22T11:15:32.488Z,17.10
2023-03-22T11:18:07.367Z,17.50
2023-03-22T11:20:36.328Z,15.20
2023-03-22T11:23:06.215Z,15.80
2023-03-22T11:25:36.626Z,14.30
2023-03-22T11:28:05.690Z,15.30
2023-03-22T11:30:34.959Z,16.20
2023-03-22T11:33:20.165Z,19.00
2023-03-22T11:35:55.616Z,15.40
2023-03-22T11:38:41.177Z,16.20
2023-03-22T11:41:39.530Z,19.10
2023-03-22T11:44:13.747Z,17.20
2023-03-22T11:46:50.860Z,18.40
2023-03-22T11:49:19.437Z,18.30
2023-03-22T11:51:54.855Z,17.70
2023-03-22T11:54:28.000Z,16.60
2023-03-22T11:56:59.041Z,16.70
2023-03-22T11:59:39.894Z,15.40
2023-03-22T12:02:31.943Z,16.50
2023-03-22T12:05:23.609Z,15.50
2023-03-22T12:08:18.216Z,15.30
2023-03-22T12:11:07.601Z,16.50
2023-03-22T12:13:44.389Z,17.00
2023-03-22T12:16:14.773Z,14.40
2023-03-22T12:18:47.964Z,16.10
2023-03-22T12:21:18.491Z,15.20
2023-03-22T12:23:47.276Z,16.30
2023-03-22T12:26:20.265Z,14.00
2023-03-22T12:29:09.929Z,15.70
2023-03-22T12:32:08.863Z,16.90
2023-03-22T12:34:48.130Z,17.30
2023-03-22T12:37:29.670Z,15.20
2023-03-22T12:40:01.539Z,17.60
2023-03-22T12:42:50.363Z,15.80
2023-03-22T12:45:31.575Z,14.90
2023-03-22T12:48:12.866Z,16.80
2023-03-22T12:50:50.015Z,16.60
2023-03-22T12:53:19.422Z,16.00
2023-03-22T12:55:48.114Z,16.60
2023-03-22T12:58:22.707Z,16.40
2023-03-22T13:01:00.493Z,16.00
2023-03-22T13:03:52.364Z,16.20
2023-03-22T13:06:34.506Z,17.70
2023-03-22T13:09:10.242Z,13.40
2023-03-22T13:11:47.487Z,14.10
2023-03-22T13:14:52.530Z,13.50
2023-03-22T13:17:22.472Z,13.40
2023-03-22T13:20:15.897Z,12.50
2023-03-22T13:22:47.900Z,12.90
2023-03-22T13:25:19.548Z,11.80
2023-03-22T13:27:59.431Z,11.40
2023-03-22T13:30:31.754Z,12.50
2023-03-22T13:35:45.428Z,11.00
2023-03-22T13:38:26.928Z,13.50
2023-03-22T13:41:23.003Z,13.60
2023-03-22T13:43:59.043Z,13.40
2023-03-22T13:46:38.409Z,13.10
2023-03-22T13:49:20.195Z,13.00
2023-03-22T13:51:48.953Z,11.20
2023-03-22T13:54:21.220Z,13.20
2023-03-22T13:56:53.364Z,12.50
2023-03-22T13:59:30.079Z,14.00
2023-03-22T14:02:15.881Z,14.00
2023-03-22T14:04:50.768Z,12.60
2023-03-22T14:07:28.569Z,11.70
2023-03-22T14:10:00.606Z,13.50
2023-03-22T14:13:11.814Z,13.10
2023-03-22T14:15:43.331Z,14.60
2023-03-22T14:18:26.581Z,13.20
2023-03-22T14:21:00.191Z,13.50
